createdAt,value
2024-01-07T00:01:57.016Z,9.82
2024-01-07T00:04:25.061Z,10.80
2024-01-07T00:06:52.677Z,10.30
2024-01-07T00:09:20.138Z,11.95
2024-01-07T00:14:17.015Z,14.35
2024-01-07T00:16:44.593Z,13.60
2024-01-07T00:19:12.341Z,14.55
2024-01-07T00:21:40.127Z,13.05
2024-01-07T00:24:07.739Z,12.40
2024-01-07T00:26:36.749Z,12.98
2024-01-07T00:29:04.303Z,14.02
2024-01-07T00:31:32.087Z,14.95
2024-01-07T00:33:59.746Z,16.17
2024-01-07T00:36:27.394Z,16.02
2024-01-07T00:38:54.956Z,15.55
2024-01-07T00:43:49.773Z,11.73
2024-01-07T00:48:45.836Z,9.52
2024-01-07T00:51:13.709Z,9.13
2024-01-07T00:53:41.742Z,9.13
2024-01-07T00:56:09.423Z,10.32
2024-01-07T00:58:37.821Z,10.15
2024-01-07T01:01:05.540Z,9.00
2024-01-07T01:03:33.166Z,14.05
2024-01-07T01:06:00.857Z,10.68
2024-01-07T01:08:28.386Z,10.32
2024-01-07T01:13:23.206Z,7.80
2024-01-07T01:15:50.721Z,10.18
2024-01-07T01:18:18.456Z,9.48
2024-01-07T01:20:45.941Z,8.30
2024-01-07T01:23:13.690Z,7.57
2024-01-07T01:25:41.353Z,11.15
2024-01-07T01:28:09.018Z,8.07
2024-01-07T01:30:36.671Z,8.10
2024-01-07T01:33:04.609Z,11.88
2024-01-07T01:35:32.188Z,10.20
2024-01-07T01:37:59.669Z,8.05
2024-01-07T01:42:54.476Z,8.82
2024-01-07T01:47:49.942Z,12.45
2024-01-07T01:50:19.051Z,8.93
2024-01-07T01:52:47.449Z,9.88
2024-01-07T01:55:15.601Z,8.45
2024-01-07T01:57:44.535Z,9.95
2024-01-07T02:00:12.845Z,8.88
2024-01-07T02:02:40.461Z,11.35
2024-01-07T02:05:08.312Z,8.38
2024-01-07T02:07:36.108Z,9.02
2024-01-07T02:10:04.022Z,7.05
2024-01-07T02:12:31.793Z,8.25
2024-01-07T02:14:59.254Z,12.57
2024-01-07T02:19:55.049Z,10.80
2024-01-07T02:22:22.720Z,16.23
2024-01-07T02:24:50.322Z,18.17
2024-01-07T02:27:18.200Z,14.68
2024-01-07T02:29:45.694Z,18.33
2024-01-07T02:32:13.250Z,14.68
2024-01-07T02:34:40.815Z,11.32
2024-01-07T02:37:09.434Z,10.10
2024-01-07T02:39:37.034Z,7.15
2024-01-07T02:42:04.858Z,8.75
2024-01-07T02:44:32.623Z,12.95
2024-01-07T02:47:00.136Z,10.38
2024-01-07T02:49:27.745Z,11.52
2024-01-07T02:51:55.900Z,13.55
2024-01-07T02:54:23.837Z,12.05
2024-01-07T02:56:51.380Z,14.05
2024-01-07T02:59:19.059Z,11.95
2024-01-07T03:01:46.756Z,12.75
2024-01-07T03:04:16.967Z,12.65
2024-01-07T03:06:44.579Z,10.52
2024-01-07T03:09:12.918Z,9.45
2024-01-07T03:11:42.530Z,10.65
2024-01-07T03:14:11.214Z,12.27
2024-01-07T03:16:38.668Z,10.27
2024-01-07T03:21:33.813Z,7.20
2024-01-07T03:24:01.441Z,8.45
2024-01-07T03:26:33.714Z,9.10
2024-01-07T03:29:03.371Z,11.00
2024-01-07T03:31:31.257Z,14.45
2024-01-07T03:33:59.288Z,7.85
2024-01-07T03:36:26.964Z,6.95
2024-01-07T03:38:55.445Z,11.55
2024-01-07T03:41:23.139Z,11.13
2024-01-07T03:43:51.481Z,12.95
2024-01-07T03:46:19.227Z,8.30
2024-01-07T03:48:47.842Z,9.93
2024-01-07T03:51:15.569Z,9.30
2024-01-07T03:53:43.228Z,7.60
2024-01-07T03:56:10.662Z,11.30
2024-01-07T04:01:06.259Z,10.23
2024-01-07T04:03:34.024Z,8.82
2024-01-07T04:08:29.774Z,12.50
2024-01-07T04:10:57.640Z,11.13
2024-01-07T04:13:25.161Z,7.72
2024-01-07T04:15:52.738Z,9.95
2024-01-07T04:18:20.479Z,7.18
2024-01-07T04:20:47.979Z,11.45
2024-01-07T04:25:43.556Z,5.50
2024-01-07T04:28:11.291Z,8.27
2024-01-07T04:30:38.944Z,7.82
2024-01-07T04:33:06.618Z,6.32
2024-01-07T04:35:34.133Z,4.78
2024-01-07T04:40:28.945Z,5.85
2024-01-07T04:42:56.446Z,8.48
2024-01-07T04:45:23.978Z,7.90
2024-01-07T04:47:51.565Z,6.90
2024-01-07T04:50:21.196Z,4.57
2024-01-07T04:52:48.769Z,4.78
2024-01-07T04:57:44.691Z,10.40
2024-01-07T05:00:13.471Z,7.43
2024-01-07T05:02:40.926Z,6.10
2024-01-07T05:07:38.759Z,9.73
2024-01-07T05:10:06.938Z,8.30
2024-01-07T05:12:34.435Z,4.15
2024-01-07T05:17:30.656Z,6.88
2024-01-07T05:19:58.297Z,5.78
2024-01-07T05:22:25.843Z,9.13
2024-01-07T05:27:20.699Z,7.40
2024-01-07T05:29:51.165Z,5.90
2024-01-07T05:32:18.641Z,4.40
2024-01-07T05:37:13.523Z,3.53
2024-01-07T05:39:41.145Z,6.93
2024-01-07T05:42:08.598Z,7.15
2024-01-07T05:47:05.405Z,6.43
2024-01-07T05:49:33.269Z,3.75
2024-01-07T05:52:00.923Z,4.60
2024-01-07T05:54:31.227Z,6.63
2024-01-07T05:57:00.320Z,4.65
2024-01-07T05:59:27.794Z,6.65
2024-01-07T06:02:00.506Z,8.73
2024-01-07T06:04:28.312Z,7.20
2024-01-07T06:06:56.288Z,6.45
2024-01-07T06:09:24.317Z,4.85
2024-01-07T06:11:52.047Z,5.50
2024-01-07T06:14:19.532Z,6.65
2024-01-07T06:19:15.997Z,9.52
2024-01-07T06:21:43.689Z,7.45
2024-01-07T06:24:11.380Z,5.53
2024-01-07T06:26:38.966Z,8.95
2024-01-07T06:29:06.473Z,6.63
2024-01-07T06:31:34.044Z,5.40
2024-01-07T06:34:02.336Z,7.95
2024-01-07T06:36:30.256Z,5.35
2024-01-07T06:38:57.710Z,6.53
2024-01-07T06:41:25.562Z,10.45
2024-01-07T06:43:55.220Z,9.48
2024-01-07T06:46:22.744Z,7.18
2024-01-07T06:48:51.892Z,8.15
2024-01-07T06:51:19.592Z,6.22
2024-01-07T06:56:15.373Z,7.60
2024-01-07T06:58:44.055Z,4.53
2024-01-07T07:01:13.144Z,6.47
2024-01-07T07:03:42.669Z,5.88
2024-01-07T07:06:10.329Z,6.45
2024-01-07T07:08:37.809Z,5.72
2024-01-07T07:13:32.640Z,6.65
2024-01-07T07:16:00.910Z,6.63
2024-01-07T07:18:28.713Z,8.07
2024-01-07T07:20:56.295Z,8.90
2024-01-07T07:23:23.776Z,5.68
2024-01-07T07:28:19.006Z,10.68
2024-01-07T07:30:49.199Z,6.40
2024-01-07T07:33:18.715Z,5.80
2024-01-07T07:35:47.464Z,6.20
2024-01-07T07:38:15.878Z,6.75
2024-01-07T07:40:43.491Z,5.80
2024-01-07T07:45:38.469Z,6.70
2024-01-07T07:48:06.711Z,8.20
2024-01-07T07:50:34.199Z,4.90
2024-01-07T07:55:29.746Z,7.50
2024-01-07T07:57:57.366Z,3.85
2024-01-07T08:00:25.591Z,7.95
2024-01-07T08:02:54.112Z,5.80
2024-01-07T08:05:21.685Z,4.40
2024-01-07T08:07:49.198Z,7.57
2024-01-07T08:12:44.913Z,15.18
2024-01-07T08:15:12.599Z,7.95
2024-01-07T08:17:40.175Z,5.60
2024-01-07T08:20:08.464Z,7.97
2024-01-07T08:22:36.106Z,7.38
2024-01-07T08:25:03.858Z,6.95
2024-01-07T08:27:33.745Z,6.38
2024-01-07T08:30:03.074Z,7.15
2024-01-07T08:32:30.778Z,7.07
2024-01-07T08:34:58.369Z,7.88
2024-01-07T08:37:25.903Z,5.07
2024-01-07T08:39:53.393Z,5.93
2024-01-07T08:44:48.639Z,6.82
2024-01-07T08:47:16.341Z,4.38
2024-01-07T08:49:44.809Z,7.45
2024-01-07T08:52:12.547Z,6.60
2024-01-07T08:54:40.115Z,4.68
2024-01-07T08:57:07.662Z,7.07
2024-01-07T08:59:35.249Z,4.85
2024-01-07T09:02:04.024Z,8.57
2024-01-07T09:04:31.730Z,10.10
2024-01-07T09:06:59.289Z,6.28
2024-01-07T09:09:27.632Z,6.70
2024-01-07T09:11:57.736Z,8.82
2024-01-07T09:14:26.516Z,5.40
2024-01-07T09:16:55.381Z,6.03
2024-01-07T09:19:22.946Z,8.35
2024-01-07T09:21:50.624Z,7.28
2024-01-07T09:24:18.166Z,4.53
2024-01-07T09:26:45.909Z,7.65
2024-01-07T09:29:15.102Z,7.97
2024-01-07T09:31:42.787Z,9.80
2024-01-07T09:34:10.494Z,4.82
2024-01-07T09:36:38.135Z,5.43
2024-01-07T09:39:08.715Z,5.40
2024-01-07T09:41:36.344Z,6.22
2024-01-07T09:44:05.036Z,6.00
2024-01-07T09:46:33.624Z,3.55
2024-01-07T09:49:01.244Z,5.90
2024-01-07T09:51:30.508Z,5.43
2024-01-07T09:54:03.235Z,2.60
2024-01-07T09:56:39.800Z,9.02
2024-01-07T09:59:08.394Z,5.82
2024-01-07T10:01:38.995Z,6.50
2024-01-07T10:04:06.717Z,6.57
2024-01-07T10:06:34.282Z,7.63
2024-01-07T10:09:02.031Z,7.03
2024-01-07T10:11:29.547Z,10.30
2024-01-07T10:16:24.439Z,4.90
2024-01-07T10:18:52.221Z,4.90
2024-01-07T10:21:20.096Z,6.25
2024-01-07T10:23:47.672Z,5.40
2024-01-07T10:26:23.496Z,4.90
2024-01-07T10:28:55.752Z,8.75
2024-01-07T10:31:23.697Z,8.32
2024-01-07T10:33:51.544Z,7.68
2024-01-07T10:36:21.621Z,3.10
2024-01-07T10:38:49.323Z,4.70
2024-01-07T10:41:21.694Z,5.65
2024-01-07T10:43:50.049Z,3.72
2024-01-07T10:46:21.083Z,8.38
2024-01-07T10:49:00.730Z,5.50
2024-01-07T10:51:29.661Z,7.35
2024-01-07T10:53:57.833Z,6.60
2024-01-07T10:56:26.799Z,6.05
2024-01-07T10:58:58.294Z,4.13
2024-01-07T11:01:25.922Z,2.72
2024-01-07T11:04:19.646Z,8.10
2024-01-07T11:07:13.317Z,6.05
2024-01-07T11:10:06.314Z,5.07
2024-01-07T11:12:34.766Z,3.92
2024-01-07T11:15:03.780Z,7.90
2024-01-07T11:17:36.994Z,8.32
2024-01-07T11:20:13.745Z,8.52
2024-01-07T11:22:41.376Z,5.53
2024-01-07T11:25:30.429Z,5.10
2024-01-07T11:28:03.117Z,2.83
2024-01-07T11:30:30.929Z,7.93
2024-01-07T11:33:02.192Z,5.30
2024-01-07T11:35:55.163Z,10.80
2024-01-07T11:38:22.831Z,5.95
2024-01-07T11:40:51.398Z,6.53
2024-01-07T11:43:19.910Z,3.72
2024-01-07T11:45:48.381Z,5.43
2024-01-07T11:48:17.055Z,5.75
2024-01-07T11:50:47.909Z,5.40
2024-01-07T11:53:16.953Z,8.15
2024-01-07T11:55:46.217Z,5.47
2024-01-07T11:58:13.847Z,3.67
2024-01-07T12:00:41.559Z,9.43
2024-01-07T12:03:09.054Z,4.63
2024-01-07T12:05:36.665Z,4.35
2024-01-07T12:08:04.899Z,8.18
2024-01-07T12:10:32.536Z,5.13
2024-01-07T12:13:00.260Z,5.88
2024-01-07T12:15:28.976Z,6.25
2024-01-07T12:18:02.954Z,6.75
2024-01-07T12:20:30.949Z,3.75
2024-01-07T12:23:06.061Z,7.57
2024-01-07T12:25:33.648Z,8.68
2024-01-07T12:28:01.124Z,6.00
2024-01-07T12:30:29.023Z,6.85
2024-01-07T12:32:56.773Z,4.82
2024-01-07T12:35:27.249Z,7.65
2024-01-07T12:37:54.787Z,6.63
2024-01-07T12:40:22.403Z,6.07
2024-01-07T12:42:50.720Z,8.70
2024-01-07T12:45:18.417Z,4.22
2024-01-07T12:47:47.064Z,7.45
2024-01-07T12:50:15.056Z,6.18
2024-01-07T12:52:42.634Z,4.53
2024-01-07T12:55:10.279Z,3.25
2024-01-07T12:57:37.968Z,4.18
2024-01-07T13:00:09.066Z,6.35
2024-01-07T13:02:37.184Z,6.65
2024-01-07T13:05:05.293Z,4.38
2024-01-07T13:07:33.033Z,4.85
2024-01-07T13:10:00.687Z,4.97
2024-01-07T13:12:40.176Z,3.45
2024-01-07T13:15:17.976Z,3.80
2024-01-07T13:17:46.216Z,4.97
2024-01-07T13:20:13.913Z,3.33
2024-01-07T13:23:07.255Z,2.22
2024-01-07T13:25:35.121Z,5.22
2024-01-07T13:28:04.082Z,2.28
2024-01-07T13:30:32.038Z,4.75
2024-01-07T13:33:01.041Z,6.53
2024-01-07T13:35:30.123Z,4.00
2024-01-07T13:37:58.737Z,6.43
2024-01-07T13:40:26.273Z,6.05
2024-01-07T13:42:54.805Z,5.53
2024-01-07T13:45:24.393Z,2.47
2024-01-07T13:47:52.451Z,3.22
2024-01-07T13:50:20.175Z,5.57
2024-01-07T13:52:48.145Z,2.40
2024-01-07T13:55:15.876Z,8.05
2024-01-07T13:57:43.633Z,4.75
2024-01-07T14:00:12.660Z,3.03
2024-01-07T14:02:41.857Z,8.45
2024-01-07T14:05:11.665Z,3.75
2024-01-07T14:07:40.245Z,7.40
2024-01-07T14:10:10.079Z,7.38
2024-01-07T14:12:38.506Z,3.30
2024-01-07T14:15:06.609Z,5.32
2024-01-07T14:17:34.118Z,2.05
2024-01-07T14:20:01.897Z,4.63
2024-01-07T14:22:30.428Z,1.05
2024-01-07T14:24:58.062Z,3.00
2024-01-07T14:27:25.654Z,3.45
2024-01-07T14:29:53.127Z,3.45
2024-01-07T14:34:50.722Z,6.72
2024-01-07T14:37:18.473Z,4.40
2024-01-07T14:39:46.694Z,2.95
2024-01-07T14:42:14.345Z,4.15
2024-01-07T14:44:48.118Z,5.35
2024-01-07T14:47:19.261Z,2.70
2024-01-07T14:49:47.004Z,8.68
2024-01-07T14:52:15.595Z,7.63
2024-01-07T14:54:43.340Z,4.40
2024-01-07T14:57:14.917Z,3.90
2024-01-07T14:59:44.465Z,6.93
2024-01-07T15:02:14.727Z,2.67
2024-01-07T15:04:43.401Z,4.13
2024-01-07T15:07:11.041Z,4.88
2024-01-07T15:09:45.143Z,3.08
2024-01-07T15:12:12.848Z,3.92
2024-01-07T15:14:40.263Z,4.07
2024-01-07T15:19:35.555Z,5.63
2024-01-07T15:22:04.273Z,3.15
2024-01-07T15:24:31.883Z,7.80
2024-01-07T15:26:59.407Z,6.10
2024-01-07T15:29:27.010Z,9.13
2024-01-07T15:31:55.941Z,7.00
2024-01-07T15:34:24.854Z,4.80
2024-01-07T15:36:52.947Z,8.70
2024-01-07T15:39:23.976Z,6.80
2024-01-07T15:41:51.845Z,1.73
2024-01-07T15:44:19.435Z,3.88
2024-01-07T15:46:47.630Z,6.00
2024-01-07T15:49:15.256Z,6.53
2024-01-07T15:51:42.884Z,6.95
2024-01-07T15:54:10.453Z,4.32
2024-01-07T15:56:38.006Z,5.45
2024-01-07T15:59:09.883Z,5.90
2024-01-07T16:01:37.566Z,4.18
2024-01-07T16:04:05.262Z,3.70
2024-01-07T16:06:32.969Z,5.82
2024-01-07T16:09:00.547Z,3.35
2024-01-07T16:11:27.968Z,7.50
2024-01-07T16:16:23.698Z,4.28
2024-01-07T16:18:51.401Z,5.90
2024-01-07T16:21:21.920Z,3.97
2024-01-07T16:23:52.555Z,4.57
2024-01-07T16:26:20.245Z,12.13
2024-01-07T16:28:47.815Z,6.50
2024-01-07T16:31:15.422Z,7.63
2024-01-07T16:33:43.358Z,4.03
2024-01-07T16:36:11.175Z,6.13
2024-01-07T16:38:39.241Z,3.40
2024-01-07T16:41:09.147Z,10.60
2024-01-07T16:43:37.508Z,4.80
2024-01-07T16:46:05.360Z,5.55
2024-01-07T16:51:05.147Z,6.53
2024-01-07T16:53:33.199Z,5.97
2024-01-07T16:56:01.262Z,5.45
2024-01-07T16:58:28.841Z,11.25
2024-01-07T17:00:58.583Z,7.07
2024-01-07T17:03:27.357Z,6.75
2024-01-07T17:05:54.994Z,6.70
2024-01-07T17:08:22.610Z,4.07
2024-01-07T17:10:50.282Z,8.73
2024-01-07T17:13:17.739Z,9.13
2024-01-07T17:18:12.957Z,7.47
2024-01-07T17:20:40.751Z,8.90
2024-01-07T17:23:17.866Z,6.53
2024-01-07T17:25:50.127Z,8.45
2024-01-07T17:28:18.149Z,5.88
2024-01-07T17:30:45.654Z,6.70
2024-01-07T17:33:13.251Z,8.60
2024-01-07T17:35:41.494Z,8.65
2024-01-07T17:38:09.173Z,5.93
2024-01-07T17:40:36.808Z,8.48
2024-01-07T17:43:05.252Z,6.78
2024-01-07T17:45:32.830Z,6.45
2024-01-07T17:48:00.562Z,4.05
2024-01-07T17:50:28.135Z,5.90
2024-01-07T17:52:55.975Z,7.97
2024-01-07T17:55:23.625Z,7.53
2024-01-07T17:57:51.174Z,4.72
2024-01-07T18:00:19.320Z,7.13
2024-01-07T18:02:47.609Z,3.20
2024-01-07T18:05:15.394Z,9.23
2024-01-07T18:07:43.108Z,5.53
2024-01-07T18:10:12.393Z,10.23
2024-01-07T18:12:40.707Z,7.13
2024-01-07T18:15:09.338Z,10.18
2024-01-07T18:17:37.241Z,7.43
2024-01-07T18:20:05.438Z,5.95
2024-01-07T18:22:33.093Z,10.43
2024-01-07T18:25:00.777Z,10.13
2024-01-07T18:27:28.312Z,11.98
2024-01-07T18:29:56.417Z,8.93
2024-01-07T18:32:23.961Z,10.35
2024-01-07T18:34:54.287Z,6.40
2024-01-07T18:37:24.821Z,6.40
2024-01-07T18:39:52.383Z,6.55
2024-01-07T18:42:20.146Z,9.10
2024-01-07T18:44:47.663Z,7.90
2024-01-07T18:47:16.655Z,6.57
2024-01-07T18:49:44.211Z,7.90
2024-01-07T18:52:14.410Z,6.13
2024-01-07T18:54:42.710Z,8.35
2024-01-07T18:57:10.766Z,11.68
2024-01-07T18:59:38.399Z,10.88
2024-01-07T19:02:06.716Z,7.72
2024-01-07T19:04:34.343Z,10.38
2024-01-07T19:07:01.925Z,8.90
2024-01-07T19:09:29.547Z,7.10
2024-01-07T19:11:57.160Z,7.65
2024-01-07T19:14:24.997Z,5.60
2024-01-07T19:16:52.836Z,8.00
2024-01-07T19:19:20.687Z,4.60
2024-01-07T19:21:49.008Z,8.40
2024-01-07T19:24:16.456Z,12.15
2024-01-07T19:29:13.274Z,10.13
2024-01-07T19:31:40.916Z,11.00
2024-01-07T19:34:08.613Z,9.63
2024-01-07T19:36:46.076Z,7.78
2024-01-07T19:39:13.895Z,7.93
2024-01-07T19:41:41.487Z,7.10
2024-01-07T19:44:10.024Z,7.13
2024-01-07T19:46:38.197Z,6.05
2024-01-07T19:49:07.111Z,6.50
2024-01-07T19:51:34.696Z,8.95
2024-01-07T19:56:29.695Z,7.15
2024-01-07T19:58:57.429Z,7.90
2024-01-07T20:01:25.099Z,7.05
2024-01-07T20:03:52.836Z,6.95
2024-01-07T20:06:21.415Z,6.05
2024-01-07T20:08:50.264Z,5.40
2024-01-07T20:11:25.681Z,5.00
2024-01-07T20:13:53.744Z,7.30
2024-01-07T20:16:21.833Z,8.20
2024-01-07T20:18:52.926Z,6.93
2024-01-07T20:21:23.070Z,9.85
2024-01-07T20:23:51.800Z,7.72
2024-01-07T20:26:19.383Z,8.30
2024-01-07T20:28:47.575Z,8.98
2024-01-07T20:31:15.257Z,6.90
2024-01-07T20:33:42.941Z,5.43
2024-01-07T20:36:12.487Z,11.00
2024-01-07T20:38:40.636Z,9.15
2024-01-07T20:41:08.860Z,4.47
2024-01-07T20:43:36.630Z,7.18
2024-01-07T20:46:06.816Z,7.35
2024-01-07T20:48:35.249Z,7.40
2024-01-07T20:51:03.610Z,10.35
2024-01-07T20:53:32.672Z,11.82
2024-01-07T20:56:00.408Z,10.50
2024-01-07T20:58:36.605Z,9.80
2024-01-07T21:01:04.281Z,14.30
2024-01-07T21:03:32.007Z,7.75
2024-01-07T21:06:02.056Z,8.25
2024-01-07T21:08:30.075Z,9.27
2024-01-07T21:10:59.107Z,7.40
2024-01-07T21:13:27.312Z,8.18
2024-01-07T21:15:54.856Z,8.32
2024-01-07T21:18:22.449Z,6.55
2024-01-07T21:20:50.772Z,9.93
2024-01-07T21:23:19.588Z,5.40
2024-01-07T21:25:47.945Z,9.65
2024-01-07T21:28:15.947Z,8.93
2024-01-07T21:30:45.605Z,8.82
2024-01-07T21:33:13.782Z,8.05
2024-01-07T21:35:41.344Z,5.28
2024-01-07T21:40:36.249Z,6.38
2024-01-07T21:43:04.191Z,6.97
2024-01-07T21:45:31.937Z,9.48
2024-01-07T21:47:59.496Z,10.73
2024-01-07T21:50:27.185Z,9.55
2024-01-07T21:52:56.981Z,7.30
2024-01-07T21:55:24.708Z,10.20
2024-01-07T22:00:19.844Z,9.00
2024-01-07T22:02:48.293Z,11.65
2024-01-07T22:05:16.041Z,9.60
2024-01-07T22:07:43.658Z,11.85
2024-01-07T22:10:11.398Z,11.00
2024-01-07T22:12:38.880Z,9.48
2024-01-07T22:17:36.271Z,10.82
2024-01-07T22:20:05.886Z,10.52
2024-01-07T22:22:33.431Z,11.30
2024-01-07T22:27:28.372Z,11.65
2024-01-07T22:29:55.874Z,12.55
2024-01-07T22:34:50.813Z,10.55
2024-01-07T22:37:18.975Z,10.38
2024-01-07T22:39:49.279Z,10.88
2024-01-07T22:42:17.365Z,8.05
2024-01-07T22:44:44.886Z,8.68
2024-01-07T22:47:12.529Z,14.23
2024-01-07T22:49:40.148Z,13.60
2024-01-07T22:52:07.685Z,9.05
2024-01-07T22:54:38.823Z,17.08
2024-01-07T22:57:07.262Z,11.48
2024-01-07T22:59:35.865Z,13.10
2024-01-07T23:02:05.825Z,14.25
2024-01-07T23:04:33.556Z,8.70
2024-01-07T23:07:01.124Z,9.00
2024-01-07T23:09:28.782Z,10.27
2024-01-07T23:11:56.324Z,11.68
2024-01-07T23:14:24.014Z,15.57
2024-01-07T23:16:51.690Z,14.88
2024-01-07T23:19:19.519Z,12.45
2024-01-07T23:21:49.101Z,8.43
2024-01-07T23:24:16.706Z,14.05
2024-01-07T23:26:44.635Z,12.70
2024-01-07T23:29:12.276Z,10.48
2024-01-07T23:31:40.041Z,11.98
2024-01-07T23:34:08.768Z,11.77
2024-01-07T23:36:36.358Z,10.75
2024-01-07T23:39:05.170Z,6.85
2024-01-07T23:41:32.688Z,11.70
2024-01-07T23:44:00.544Z,7.00
2024-01-07T23:46:28.482Z,9.15
2024-01-07T23:48:56.106Z,11.32
2024-01-07T23:51:23.669Z,10.57
2024-01-07T23:53:51.206Z,6.53
2024-01-07T23:58:47.263Z,12.55
